Time;durP1;ratioP1;P1;durP2;ratioP2;P2;SDS_P1;SDS_P2;PMS_P1;PMS_P2;Temp;Humidity;BMP_temperature;BMP_pressure;BME280_temperature;BME280_humidity;BME280_pressure;Samples;Min_cycle;Max_cycle;Signal;HPM_P1;HPM_P2
2021/12/18 00:01:17;;;;;;;;;4.00;3.75;;;;;-146.25;100.00;57879.81;5076510;27;45469;-72
2021/12/18 00:03:43;;;;;;;;;3.50;3.50;;;;;-146.25;100.00;57879.81;5077023;27;45516;-72
2021/12/18 00:06:09;;;;;;;;;6.00;5.00;;;;;-146.25;100.00;57879.81;5075155;27;45536;-72
2021/12/18 00:08:35;;;;;;;;;1.00;1.00;;;;;-146.25;100.00;57879.81;5076775;28;45588;-72
2021/12/18 00:11:01;;;;;;;;;2.25;2.25;;;;;-146.25;100.00;57879.81;5069684;28;45955;-72
2021/12/18 00:13:26;;;;;;;;;4.00;3.50;;;;;-146.25;100.00;57879.81;5075971;27;45677;-72
2021/12/18 00:15:52;;;;;;;;;2.00;2.00;;;;;-146.25;100.00;57879.81;5076370;28;45956;-71
2021/12/18 00:18:19;;;;;;;;;3.00;2.25;;;;;-146.25;100.00;57879.81;5076204;27;45446;-72
2021/12/18 00:20:45;;;;;;;;;8.00;7.00;;;;;-146.25;100.00;57879.81;5074649;28;45533;-72
2021/12/18 00:23:10;;;;;;;;;12.00;8.50;;;;;-146.25;100.00;57879.81;5074940;28;45270;-72
2021/12/18 00:25:36;;;;;;;;;5.25;4.00;;;;;-146.25;100.00;57879.81;5075046;28;45523;-72
2021/12/18 00:28:02;;;;;;;;;2.00;2.00;;;;;-146.25;100.00;57879.81;5076898;28;45355;-71
2021/12/18 00:30:27;;;;;;;;;4.00;3.50;;;;;-146.25;100.00;57879.81;5075618;27;46832;-72
2021/12/18 00:32:53;;;;;;;;;3.75;3.75;;;;;-146.25;100.00;57879.81;5073625;27;45582;-72
2021/12/18 00:35:19;;;;;;;;;5.25;5.25;;;;;-146.25;100.00;57879.81;5071851;27;45459;-72
2021/12/18 00:37:45;;;;;;;;;7.50;6.25;;;;;-146.25;100.00;57879.81;5076158;27;45484;-72
2021/12/18 00:40:19;;;;;;;;;2.00;2.00;;;;;-146.25;100.00;57879.81;5075256;28;45544;-72
2021/12/18 00:42:56;;;;;;;;;1.00;1.00;;;;;-146.25;100.00;57879.81;5076096;27;45422;-72
2021/12/18 00:45:21;;;;;;;;;2.25;2.25;;;;;-146.25;100.00;57879.81;5075805;27;46065;-72
2021/12/18 00:47:48;;;;;;;;;3.00;1.75;;;;;-146.25;100.00;57879.81;5076609;27;45428;-72
2021/12/18 00:50:24;;;;;;;;;1.25;1.25;;;;;-146.25;100.00;57879.81;5076771;27;46175;-73
2021/12/18 00:52:50;;;;;;;;;2.50;2.50;;;;;-146.25;100.00;57879.81;5076053;28;45457;-72
2021/12/18 00:55:20;;;;;;;;;3.75;3.00;;;;;-146.25;100.00;57879.81;5078750;27;45410;-73
2021/12/18 00:57:46;;;;;;;;;8.25;7.75;;;;;-146.25;100.00;57879.81;5078821;28;45532;-73
2021/12/18 01:00:15;;;;;;;;;16.50;14.75;;;;;-146.25;100.00;57879.81;5077945;27;45484;-72
2021/12/18 01:02:43;;;;;;;;;14.50;13.75;;;;;-146.25;100.00;57879.81;5077086;28;45719;-73
2021/12/18 01:05:10;;;;;;;;;15.00;15.00;;;;;-146.25;100.00;57879.81;5078087;27;45554;-72
2021/12/18 01:07:36;;;;;;;;;18.25;14.75;;;;;-146.25;100.00;57879.81;5078285;27;45542;-73
2021/12/18 01:12:37;;;;;;;;;7.50;4.00;;;;;-146.25;100.00;57879.81;5076943;27;45418;-73
2021/12/18 01:22:56;;;;;;;;;17.00;13.75;;;;;-146.25;100.00;57879.81;5040004;28;45397;-73
2021/12/18 01:25:22;;;;;;;;;19.50;12.50;;;;;-146.25;100.00;57879.81;5076308;28;45529;-73
2021/12/18 01:27:48;;;;;;;;;16.25;13.75;;;;;-146.25;100.00;57879.81;5077457;28;45287;-73
2021/12/18 01:30:15;;;;;;;;;31.75;24.75;;;;;-146.25;100.00;57879.81;5076914;27;45896;-73
2021/12/18 01:32:41;;;;;;;;;26.50;20.00;;;;;-146.25;100.00;57879.81;5076561;27;45521;-73
2021/12/18 01:35:07;;;;;;;;;19.25;15.75;;;;;-146.25;100.00;57879.81;5077328;27;45408;-73
2021/12/18 01:37:33;;;;;;;;;12.50;9.50;;;;;-146.25;100.00;57879.81;5077627;28;45461;-73
2021/12/18 01:39:59;;;;;;;;;15.25;9.50;;;;;-146.25;100.00;57879.81;5077251;28;45563;-73
2021/12/18 01:52:35;;;;;;;;;10.25;8.75;;;;;-146.25;100.00;57879.81;5076597;28;45632;-73
2021/12/18 01:55:01;;;;;;;;;6.00;6.00;;;;;-146.25;100.00;57879.81;5076673;27;45481;-73
2021/12/18 01:57:28;;;;;;;;;3.75;3.75;;;;;-146.25;100.00;57879.81;5076747;27;45542;-73
2021/12/18 01:59:54;;;;;;;;;5.00;5.00;;;;;-146.25;100.00;57879.81;5076327;28;45483;-73
2021/12/18 02:02:20;;;;;;;;;4.00;4.00;;;;;-146.25;100.00;57879.81;5076398;27;45378;-72
2021/12/18 02:04:46;;;;;;;;;8.00;6.50;;;;;-146.25;100.00;57879.81;5076267;27;45751;-73
2021/12/18 02:07:13;;;;;;;;;60.25;46.75;;;;;-146.25;100.00;57879.81;5067426;27;45433;-73
2021/12/18 02:09:58;;;;;;;;;75.25;53.75;;;;;-146.25;100.00;57879.81;5070088;28;45520;-74
2021/12/18 02:12:31;;;;;;;;;13.00;13.00;;;;;-146.25;100.00;57879.81;5060306;28;45590;-73
2021/12/18 02:22:59;;;;;;;;;3.00;3.00;;;;;-146.25;100.00;57879.81;5076421;28;45393;-72
2021/12/18 02:25:25;;;;;;;;;6.00;3.75;;;;;-146.25;100.00;57879.81;5076571;28;45641;-73
2021/12/18 02:27:52;;;;;;;;;4.00;1.50;;;;;-146.25;100.00;57879.81;5059568;28;45438;-73
2021/12/18 02:30:23;;;;;;;;;2.00;2.00;;;;;-146.25;100.00;57879.81;5076316;27;46144;-73
2021/12/18 02:32:50;;;;;;;;;2.50;2.50;;;;;-146.25;100.00;57879.81;5075927;28;45783;-72
2021/12/18 02:35:28;;;;;;;;;6.00;3.75;;;;;-146.25;100.00;57879.81;5076428;27;45438;-73
2021/12/18 02:38:10;;;;;;;;;1.00;1.00;;;;;-146.25;100.00;57879.81;5076235;28;45715;-73
2021/12/18 02:43:11;;;;;;;;;4.25;4.25;;;;;-146.25;100.00;57879.81;5076049;27;45440;-72
2021/12/18 02:45:37;;;;;;;;;7.50;7.00;;;;;-146.25;100.00;57879.81;5075776;28;45479;-73
2021/12/18 02:48:02;;;;;;;;;8.50;7.50;;;;;-146.25;100.00;57879.81;5076138;28;45368;-72
2021/12/18 02:50:28;;;;;;;;;2.00;2.00;;;;;-146.25;100.00;57879.81;5074303;28;45484;-73
2021/12/18 02:52:53;;;;;;;;;10.25;10.25;;;;;-146.25;100.00;57879.81;5075810;28;45435;-72
2021/12/18 02:55:19;;;;;;;;;2.75;2.75;;;;;-146.25;100.00;57879.81;5077855;28;45526;-74
2021/12/18 02:57:44;;;;;;;;;2.00;2.00;;;;;-146.25;100.00;57879.81;5079807;28;45697;-72
2021/12/18 03:00:10;;;;;;;;;2.75;2.00;;;;;-146.25;100.00;57879.81;5078976;28;46109;-72
2021/12/18 03:02:41;;;;;;;;;2.75;2.75;;;;;-146.25;100.00;57879.81;5079201;28;45520;-73
2021/12/18 03:05:10;;;;;;;;;1.00;1.00;;;;;-146.25;100.00;57879.81;5079386;27;45461;-73
2021/12/18 03:07:36;;;;;;;;;1.25;1.00;;;;;-146.25;100.00;57879.81;5079414;28;45599;-73
2021/12/18 03:24:54;;;;;;;;;24.25;19.00;;;;;-146.25;100.00;57879.81;5078850;28;45560;-73
2021/12/18 03:26:43;;;;;;;;;10.75;9.25;;;;;-146.25;100.00;57879.81;5070942;28;45319;-73
2021/12/18 03:29:08;;;;;;;;;3.00;2.25;;;;;-146.25;100.00;57879.81;5079072;28;45330;-73
2021/12/18 03:31:34;;;;;;;;;2.00;2.00;;;;;-146.25;100.00;57879.81;5078325;28;45406;-73
2021/12/18 03:34:00;;;;;;;;;2.00;2.00;;;;;-146.25;100.00;57879.81;5078570;28;45582;-73
2021/12/18 03:36:26;;;;;;;;;2.00;1.50;;;;;-146.25;100.00;57879.81;5078920;27;45314;-73
2021/12/18 03:38:52;;;;;;;;;2.00;1.75;;;;;-146.25;100.00;57879.81;5079099;28;46257;-73
2021/12/18 03:41:17;;;;;;;;;2.00;2.00;;;;;-146.25;100.00;57879.81;5077726;27;45566;-74
2021/12/18 03:43:43;;;;;;;;;8.00;6.50;;;;;-146.25;100.00;57879.81;5079165;28;45301;-73
2021/12/18 03:46:08;;;;;;;;;7.75;7.25;;;;;-146.25;100.00;57879.81;5078986;27;45393;-73
2021/12/18 03:48:34;;;;;;;;;6.75;6.00;;;;;-146.25;100.00;57879.81;5079007;27;45547;-73
2021/12/18 03:50:59;;;;;;;;;24.50;19.75;;;;;-146.25;100.00;57879.81;5078328;28;45356;-73
2021/12/18 03:53:25;;;;;;;;;15.75;13.00;;;;;-146.25;100.00;57879.81;5078210;27;45423;-73
2021/12/18 03:55:50;;;;;;;;;30.50;26.25;;;;;-146.25;100.00;57879.81;5083629;28;45389;-73
2021/12/18 03:58:16;;;;;;;;;2.00;2.00;;;;;-146.25;100.00;57879.81;5087193;28;45488;-73
2021/12/18 04:00:41;;;;;;;;;1.50;1.50;;;;;-146.25;100.00;57879.81;5077675;28;46480;-73
2021/12/18 04:03:07;;;;;;;;;3.00;2.00;;;;;-146.25;100.00;57879.81;5079109;27;45503;-73
2021/12/18 04:05:33;;;;;;;;;2.25;2.25;;;;;-146.25;100.00;57879.81;5079249;28;45347;-73
2021/12/18 04:08:08;;;;;;;;;10.50;8.00;;;;;-146.25;100.00;57879.81;5079492;28;45222;-73
2021/12/18 04:10:36;;;;;;;;;9.25;8.50;;;;;-146.25;100.00;57879.81;5079108;27;45390;-72
2021/12/18 04:13:01;;;;;;;;;5.75;3.00;;;;;-146.25;100.00;57879.81;5078791;27;45479;-73
2021/12/18 04:15:27;;;;;;;;;2.25;2.00;;;;;-146.25;100.00;57879.81;5078934;27;45987;-73
2021/12/18 04:17:52;;;;;;;;;2.75;2.00;;;;;-146.25;100.00;57879.81;5079376;27;45454;-73
2021/12/18 04:20:18;;;;;;;;;2.00;2.00;;;;;-146.25;100.00;57879.81;5078411;28;45647;-73
2021/12/18 04:22:44;;;;;;;;;2.50;2.00;;;;;-146.25;100.00;57879.81;5078129;27;45402;-73
2021/12/18 04:25:09;;;;;;;;;1.50;1.00;;;;;-146.25;100.00;57879.81;5078168;28;45250;-73
2021/12/18 04:27:35;;;;;;;;;3.00;2.00;;;;;-146.25;100.00;57879.81;5077965;28;45392;-73
2021/12/18 04:30:01;;;;;;;;;2.75;2.00;;;;;-146.25;100.00;57879.81;5077462;28;45520;-73
2021/12/18 04:32:26;;;;;;;;;2.00;2.00;;;;;-146.25;100.00;57879.81;5077382;28;45547;-73
2021/12/18 04:34:52;;;;;;;;;1.75;1.50;;;;;-146.25;100.00;57879.81;5077913;28;45480;-73
2021/12/18 04:37:19;;;;;;;;;1.25;1.25;;;;;-146.25;100.00;57879.81;5077614;28;45673;-73
2021/12/18 04:39:44;;;;;;;;;3.00;3.00;;;;;-146.25;100.00;57879.81;5077977;27;45488;-73
2021/12/18 04:42:10;;;;;;;;;3.00;3.00;;;;;-146.25;100.00;57879.81;5077440;28;45482;-73
2021/12/18 04:44:36;;;;;;;;;3.50;3.00;;;;;-146.25;100.00;57879.81;5077360;28;45575;-73
2021/12/18 04:47:01;;;;;;;;;6.00;5.75;;;;;-146.25;100.00;57879.81;5078097;28;45408;-73
2021/12/18 04:49:27;;;;;;;;;4.25;3.00;;;;;-146.25;100.00;57879.81;5078146;28;45459;-73
2021/12/18 04:51:53;;;;;;;;;5.00;3.00;;;;;-146.25;100.00;57879.81;5077531;28;45472;-73
2021/12/18 04:54:18;;;;;;;;;3.00;3.00;;;;;-146.25;100.00;57879.81;5078061;28;45438;-73
2021/12/18 04:56:44;;;;;;;;;6.00;3.00;;;;;-146.25;100.00;57879.81;5077070;28;45682;-73
2021/12/18 04:59:10;;;;;;;;;5.00;5.00;;;;;-146.25;100.00;57879.81;5077239;27;46102;-72
2021/12/18 05:01:38;;;;;;;;;7.00;7.00;;;;;-146.25;100.00;57879.81;5077139;27;45303;-73
2021/12/18 05:04:08;;;;;;;;;8.50;6.50;;;;;-146.25;100.00;57879.81;5077405;27;45622;-71
2021/12/18 05:06:36;;;;;;;;;6.50;6.00;;;;;-146.25;100.00;57879.81;5077324;28;45460;-72
2021/12/18 05:09:02;;;;;;;;;8.00;6.00;;;;;-146.25;100.00;57879.81;5060624;27;45575;-72
2021/12/18 05:11:28;;;;;;;;;4.50;3.25;;;;;-146.25;100.00;57879.81;5077063;28;46213;-73
2021/12/18 05:13:54;;;;;;;;;6.00;4.00;;;;;-146.25;100.00;57879.81;5077733;27;45252;-72
2021/12/18 05:16:19;;;;;;;;;2.00;2.00;;;;;-146.25;100.00;57879.81;5077831;28;45677;-73
2021/12/18 05:18:45;;;;;;;;;5.25;3.00;;;;;-146.25;100.00;57879.81;5076295;27;45417;-73
2021/12/18 05:21:11;;;;;;;;;7.00;5.75;;;;;-146.25;100.00;57879.81;5077278;28;45389;-72
2021/12/18 05:23:36;;;;;;;;;4.00;3.50;;;;;-146.25;100.00;57879.81;5076838;28;45299;-73
2021/12/18 05:26:02;;;;;;;;;3.00;3.00;;;;;-146.25;100.00;57879.81;5077518;28;45489;-72
2021/12/18 05:28:27;;;;;;;;;4.00;3.00;;;;;-146.25;100.00;57879.81;5077059;28;47319;-72
2021/12/18 05:30:53;;;;;;;;;3.00;3.00;;;;;-146.25;100.00;57879.81;5076702;27;45638;-72
2021/12/18 05:33:18;;;;;;;;;6.00;5.75;;;;;-146.25;100.00;57879.81;5078045;28;45523;-73
2021/12/18 05:35:44;;;;;;;;;8.50;5.75;;;;;-146.25;100.00;57879.81;5077737;28;45539;-72
2021/12/18 05:38:09;;;;;;;;;7.00;5.75;;;;;-146.25;100.00;57879.81;5077673;28;45901;-73
2021/12/18 05:40:37;;;;;;;;;4.75;3.00;;;;;-146.25;100.00;57879.81;5077864;28;45247;-73
2021/12/18 05:43:03;;;;;;;;;3.25;2.75;;;;;-146.25;100.00;57879.81;5077819;27;45298;-73
2021/12/18 05:45:29;;;;;;;;;2.75;2.75;;;;;-146.25;100.00;57879.81;5077937;28;45230;-73
2021/12/18 05:47:54;;;;;;;;;4.00;4.00;;;;;-146.25;100.00;57879.81;5077778;28;45481;-73
2021/12/18 05:50:20;;;;;;;;;3.00;2.50;;;;;-146.25;100.00;57879.81;5078132;28;45399;-73
2021/12/18 05:52:47;;;;;;;;;2.25;2.00;;;;;-146.25;100.00;57879.81;5077819;28;45397;-73
2021/12/18 05:55:15;;;;;;;;;7.00;5.50;;;;;-146.25;100.00;57879.81;5077804;28;45544;-73
2021/12/18 05:57:42;;;;;;;;;4.75;4.50;;;;;-146.25;100.00;57879.81;5077461;28;46129;-73
2021/12/18 06:00:09;;;;;;;;;2.50;2.00;;;;;-146.25;100.00;57879.81;5077526;28;45308;-73
2021/12/18 06:02:35;;;;;;;;;5.00;3.00;;;;;-146.25;100.00;57879.81;5076959;28;45306;-73
2021/12/18 06:05:01;;;;;;;;;5.00;3.00;;;;;-146.25;100.00;57879.81;5077132;28;45426;-73
2021/12/18 06:07:32;;;;;;;;;5.00;3.00;;;;;-146.25;100.00;57879.81;5077293;28;46095;-73
2021/12/18 06:09:59;;;;;;;;;3.00;2.75;;;;;-146.25;100.00;57879.81;5077259;28;45479;-73
2021/12/18 06:12:26;;;;;;;;;3.00;3.00;;;;;-146.25;100.00;57879.81;5077867;28;45539;-74
2021/12/18 06:14:52;;;;;;;;;3.00;3.00;;;;;-146.25;100.00;57879.81;5077704;28;45479;-72
2021/12/18 06:17:18;;;;;;;;;3.50;3.00;;;;;-146.25;100.00;57879.81;5077074;28;46270;-72
2021/12/18 06:19:44;;;;;;;;;7.25;6.00;;;;;-146.25;100.00;57879.81;5077276;28;45256;-72
2021/12/18 06:22:09;;;;;;;;;6.25;5.00;;;;;-146.25;100.00;57879.81;5077316;28;45377;-73
2021/12/18 06:24:35;;;;;;;;;4.50;4.50;;;;;-146.25;100.00;57879.81;5077619;28;45413;-73
2021/12/18 06:27:01;;;;;;;;;2.25;2.00;;;;;-146.25;100.00;57879.81;5076153;28;46110;-72
2021/12/18 06:29:26;;;;;;;;;5.00;3.00;;;;;-146.25;100.00;57879.81;5076096;28;45451;-72
2021/12/18 06:31:52;;;;;;;;;5.00;3.00;;;;;-146.25;100.00;57879.81;5068324;27;45576;-72
2021/12/18 06:34:17;;;;;;;;;5.25;4.25;;;;;-146.25;100.00;57879.81;5069725;28;45539;-74
2021/12/18 06:36:44;;;;;;;;;4.50;3.25;;;;;-146.25;100.00;57879.81;5067471;28;45551;-73
2021/12/18 06:39:09;;;;;;;;;5.00;5.00;;;;;-146.25;100.00;57879.81;5079008;28;45602;-73
2021/12/18 06:41:35;;;;;;;;;3.00;3.00;;;;;-146.25;100.00;57879.81;5078815;28;45495;-73
2021/12/18 06:44:02;;;;;;;;;2.50;2.50;;;;;-146.25;100.00;57879.81;5076178;28;45591;-73
2021/12/18 06:46:27;;;;;;;;;5.00;5.00;;;;;-146.25;100.00;57879.81;5078725;28;46213;-73
2021/12/18 06:48:53;;;;;;;;;9.25;6.75;;;;;-146.25;100.00;57879.81;5068369;27;45437;-73
2021/12/18 06:51:19;;;;;;;;;6.00;5.75;;;;;-146.25;100.00;57879.81;5085814;27;45408;-73
2021/12/18 06:53:45;;;;;;;;;6.25;6.00;;;;;-146.25;100.00;57879.81;5069804;28;45845;-73
2021/12/18 06:56:11;;;;;;;;;7.75;7.25;;;;;-146.25;100.00;57879.81;5078908;27;45939;-74
2021/12/18 06:58:36;;;;;;;;;8.25;8.00;;;;;-146.25;100.00;57879.81;5067663;28;45561;-73
2021/12/18 07:01:02;;;;;;;;;6.00;6.00;;;;;-146.25;100.00;57879.81;5067485;28;45384;-71
2021/12/18 07:03:29;;;;;;;;;3.00;3.00;;;;;-146.25;100.00;57879.81;5078651;27;45391;-72
2021/12/18 07:05:55;;;;;;;;;6.00;6.00;;;;;-146.25;100.00;57879.81;5077992;28;45973;-73
2021/12/18 07:08:21;;;;;;;;;5.50;3.75;;;;;-146.25;100.00;57879.81;5066743;27;45404;-73
2021/12/18 07:10:46;;;;;;;;;3.00;3.00;;;;;-146.25;100.00;57879.81;5076527;28;45755;-73
2021/12/18 07:13:12;;;;;;;;;6.00;5.25;;;;;-146.25;100.00;57879.81;5077425;28;45517;-72
2021/12/18 07:15:38;;;;;;;;;4.25;4.25;;;;;-146.25;100.00;57879.81;5077241;28;47097;-72
2021/12/18 07:18:04;;;;;;;;;5.00;4.25;;;;;-146.25;100.00;57879.81;5068755;27;45676;-72
2021/12/18 07:20:31;;;;;;;;;7.00;6.25;;;;;-146.25;100.00;57879.81;5068009;28;45411;-73
2021/12/18 07:22:57;;;;;;;;;6.25;6.00;;;;;-146.25;100.00;57879.81;5078481;27;45565;-72
2021/12/18 07:25:22;;;;;;;;;6.50;6.50;;;;;-146.25;100.00;57879.81;5066617;27;46092;-73
2021/12/18 07:27:48;;;;;;;;;7.75;6.25;;;;;-146.25;100.00;57879.81;5060743;28;45464;-73
2021/12/18 07:30:15;;;;;;;;;7.00;6.75;;;;;-146.25;100.00;57879.81;5073702;27;45455;-73
2021/12/18 07:32:41;;;;;;;;;17.75;17.00;;;;;-146.25;100.00;57879.81;5044466;27;45504;-72
2021/12/18 07:35:08;;;;;;;;;16.50;14.50;;;;;-146.25;100.00;57879.81;5075203;28;45460;-70
2021/12/18 07:37:34;;;;;;;;;23.75;21.50;;;;;-146.25;100.00;57879.81;5075234;27;45283;-72
2021/12/18 07:39:59;;;;;;;;;34.25;32.50;;;;;-146.25;100.00;57879.81;5069616;28;45424;-73
2021/12/18 07:42:25;;;;;;;;;20.25;17.25;;;;;-146.25;100.00;57879.81;5057857;28;45347;-73
2021/12/18 07:44:52;;;;;;;;;13.75;12.00;;;;;-146.25;100.00;57879.81;5057687;28;45495;-73
2021/12/18 07:47:18;;;;;;;;;10.75;9.00;;;;;-146.25;100.00;57879.81;5073092;28;45510;-72
2021/12/18 07:49:44;;;;;;;;;17.25;13.00;;;;;-146.25;100.00;57879.81;5064174;28;45679;-73
2021/12/18 07:52:12;;;;;;;;;16.50;15.00;;;;;-146.25;100.00;57879.81;5077594;28;45356;-73
2021/12/18 07:54:37;;;;;;;;;35.75;32.50;;;;;-146.25;100.00;57879.81;5077306;28;46387;-72
2021/12/18 07:57:03;;;;;;;;;33.75;29.25;;;;;-146.25;100.00;57879.81;5077265;28;45535;-72
2021/12/18 07:59:29;;;;;;;;;16.00;15.25;;;;;-146.25;100.00;57879.81;5077524;28;45446;-72
2021/12/18 08:01:54;;;;;;;;;13.25;12.00;;;;;-146.25;100.00;57879.81;5077911;28;45431;-73
2021/12/18 08:04:20;;;;;;;;;19.00;18.75;;;;;-146.25;100.00;57879.81;5075559;28;46236;-73
2021/12/18 08:06:45;;;;;;;;;28.75;24.50;;;;;-146.25;100.00;57879.81;5074755;27;45473;-72
2021/12/18 08:09:11;;;;;;;;;11.75;11.00;;;;;-146.25;100.00;57879.81;5074797;28;45640;-71
2021/12/18 08:11:36;;;;;;;;;13.00;12.00;;;;;-146.25;100.00;57879.81;5074598;27;45541;-73
2021/12/18 08:14:02;;;;;;;;;10.25;9.00;;;;;-146.25;100.00;57879.81;5074487;27;45595;-73
2021/12/18 08:16:28;;;;;;;;;8.25;7.00;;;;;-146.25;100.00;57879.81;5075200;28;45725;-74
2021/12/18 08:18:53;;;;;;;;;11.25;9.25;;;;;-146.25;100.00;57879.81;5075786;27;45431;-74
2021/12/18 08:21:19;;;;;;;;;8.00;6.50;;;;;-146.25;100.00;57879.81;5075792;27;45484;-74
2021/12/18 08:23:44;;;;;;;;;5.00;4.00;;;;;-146.25;100.00;57879.81;5074987;27;45546;-73
2021/12/18 08:26:10;;;;;;;;;10.00;8.00;;;;;-146.25;100.00;57879.81;5074542;27;45397;-72
2021/12/18 08:28:36;;;;;;;;;4.50;4.50;;;;;-146.25;100.00;57879.81;5074755;28;45317;-72
2021/12/18 08:31:02;;;;;;;;;7.00;5.50;;;;;-146.25;100.00;57879.81;5076254;27;45432;-74
2021/12/18 08:33:27;;;;;;;;;3.75;3.00;;;;;-146.25;100.00;57879.81;5029361;27;1357246;-74
2021/12/18 08:35:53;;;;;;;;;6.00;4.00;;;;;-146.25;100.00;57879.81;5078195;28;45369;-75
2021/12/18 08:38:18;;;;;;;;;6.00;4.00;;;;;-146.25;100.00;57879.81;5076208;27;45412;-74
2021/12/18 08:40:45;;;;;;;;;9.75;9.50;;;;;-146.25;100.00;57879.81;5076519;27;45556;-74
2021/12/18 08:43:11;;;;;;;;;27.00;24.75;;;;;-146.25;100.00;57879.81;5075987;27;45346;-72
2021/12/18 08:45:37;;;;;;;;;27.50;24.25;;;;;-146.25;100.00;57879.81;5072914;27;45702;-76
2021/12/18 08:48:03;;;;;;;;;30.00;24.75;;;;;-146.25;100.00;57879.81;5076204;28;45623;-78
2021/12/18 08:50:29;;;;;;;;;26.25;23.75;;;;;-146.25;100.00;57879.81;5076607;28;45337;-78
2021/12/18 08:52:54;;;;;;;;;27.75;25.75;;;;;-146.25;100.00;57879.81;5075572;27;45987;-74
2021/12/18 08:55:21;;;;;;;;;26.25;22.50;;;;;-146.25;100.00;57879.81;5074426;28;45720;-76
2021/12/18 08:57:47;;;;;;;;;11.50;9.75;;;;;-146.25;100.00;57879.81;5077445;27;45482;-76
2021/12/18 09:00:16;;;;;;;;;13.25;12.50;;;;;-146.25;100.00;57879.81;5076844;28;45663;-77
2021/12/18 09:02:44;;;;;;;;;5.75;5.25;;;;;-146.25;100.00;57879.81;5077055;27;45804;-77
2021/12/18 09:05:11;;;;;;;;;4.75;4.25;;;;;-146.25;100.00;57879.81;5076419;27;45357;-77
2021/12/18 09:07:37;;;;;;;;;3.50;3.00;;;;;-146.25;100.00;57879.81;5076914;28;45495;-74
2021/12/18 09:10:05;;;;;;;;;3.00;3.00;;;;;-146.25;100.00;57879.81;5075456;27;45380;-75
2021/12/18 09:12:31;;;;;;;;;4.50;3.25;;;;;-146.25;100.00;57879.81;5075062;27;46339;-76
2021/12/18 09:14:57;;;;;;;;;2.50;1.50;;;;;-146.25;100.00;57879.81;5075419;28;45472;-75
2021/12/18 09:17:22;;;;;;;;;5.25;3.00;;;;;-146.25;100.00;57879.81;5075978;27;45494;-75
2021/12/18 09:19:48;;;;;;;;;7.00;3.75;;;;;-146.25;100.00;57879.81;5075605;28;45301;-75
2021/12/18 09:22:14;;;;;;;;;4.00;4.00;;;;;-146.25;100.00;57879.81;5075727;28;45476;-74
2021/12/18 09:24:40;;;;;;;;;4.00;4.00;;;;;-146.25;100.00;57879.81;5075126;27;45437;-74
2021/12/18 09:27:06;;;;;;;;;4.00;4.00;;;;;-146.25;100.00;57879.81;5075597;28;45389;-75
2021/12/18 09:29:32;;;;;;;;;7.25;6.00;;;;;-146.25;100.00;57879.81;5073083;28;45409;-75
2021/12/18 09:31:58;;;;;;;;;5.33;5.33;;;;;-146.25;100.00;57879.81;5075434;27;45597;-75
2021/12/18 09:34:26;;;;;;;;;3.00;3.00;;;;;-146.25;100.00;57879.81;5075540;28;45394;-76
2021/12/18 09:36:52;;;;;;;;;5.33;5.00;;;;;-146.25;100.00;57879.81;5075102;27;45393;-76
2021/12/18 09:39:18;;;;;;;;;5.00;4.67;;;;;-146.25;100.00;57879.81;5090848;27;45533;-76
2021/12/18 09:41:48;;;;;;;;;5.00;5.00;;;;;-146.25;100.00;57879.81;5075792;28;46223;-76
2021/12/18 09:44:14;;;;;;;;;13.33;13.00;;;;;-146.25;100.00;57879.81;5074678;27;45557;-77
2021/12/18 09:46:40;;;;;;;;;15.00;13.33;;;;;-146.25;100.00;57879.81;5075217;27;45546;-78
2021/12/18 09:49:07;;;;;;;;;19.33;17.00;;;;;-146.25;100.00;57879.81;5076690;28;45427;-76
2021/12/18 09:51:33;;;;;;;;;13.33;11.33;;;;;-146.25;100.00;57879.81;5074917;28;46386;-77
2021/12/18 09:53:58;;;;;;;;;26.67;24.67;;;;;-146.25;100.00;57879.81;5074432;27;45631;-77
2021/12/18 09:56:25;;;;;;;;;16.00;14.33;;;;;-146.25;100.00;57879.81;5074722;27;45443;-74
2021/12/18 09:58:52;;;;;;;;;19.00;16.33;;;;;-146.25;100.00;57879.81;5075572;28;45935;-78
2021/12/18 10:01:17;;;;;;;;;16.33;15.33;;;;;-146.25;100.00;57879.81;5076356;27;46306;-77
2021/12/18 10:03:46;;;;;;;;;19.00;17.00;;;;;-146.25;100.00;57879.81;5076059;27;45652;-77
2021/12/18 10:06:42;;;;;;;;;26.67;23.00;;;;;-146.25;100.00;57879.81;5076919;28;45444;-77
2021/12/18 10:09:18;;;;;;;;;19.33;17.67;;;;;-146.25;100.00;57879.81;5076957;28;45435;-77
2021/12/18 10:11:53;;;;;;;;;16.33;15.00;;;;;-146.25;100.00;57879.81;5075699;28;46552;-77
2021/12/18 10:14:39;;;;;;;;;20.33;18.33;;;;;-146.25;100.00;57879.81;5076859;27;45459;-78
2021/12/18 10:17:22;;;;;;;;;14.67;14.00;;;;;-146.25;100.00;57879.81;5075328;28;45463;-76
2021/12/18 10:19:50;;;;;;;;;15.67;14.67;;;;;-146.25;100.00;57879.81;5076693;28;45535;-77
2021/12/18 10:22:15;;;;;;;;;8.00;8.00;;;;;-146.25;100.00;57879.81;5076327;28;45431;-77
2021/12/18 10:24:43;;;;;;;;;12.67;12.33;;;;;-146.25;100.00;57879.81;5075711;28;45475;-77
2021/12/18 10:27:24;;;;;;;;;7.33;7.33;;;;;-146.25;100.00;57879.81;5076200;28;45364;-77
2021/12/18 10:29:52;;;;;;;;;10.00;9.00;;;;;-146.25;100.00;57879.81;5076906;27;45586;-77
2021/12/18 10:32:20;;;;;;;;;11.00;11.00;;;;;-146.25;100.00;57879.81;5075718;27;45546;-77
2021/12/18 10:34:57;;;;;;;;;6.00;6.00;;;;;-146.25;100.00;57879.81;5076584;28;45433;-77
2021/12/18 10:37:25;;;;;;;;;10.00;8.00;;;;;-146.25;100.00;57879.81;5076630;27;45400;-77
2021/12/18 10:39:53;;;;;;;;;7.00;7.00;;;;;-146.25;100.00;57879.81;5076599;27;45429;-76
2021/12/18 10:42:30;;;;;;;;;7.67;6.67;;;;;-146.25;100.00;57879.81;5075186;28;46410;-76
2021/12/18 10:45:04;;;;;;;;;5.00;5.00;;;;;-146.25;100.00;57879.81;5076401;27;45467;-76
2021/12/18 10:48:03;;;;;;;;;11.33;10.33;;;;;-146.25;100.00;57879.81;5075700;28;45658;-76
2021/12/18 10:50:50;;;;;;;;;5.00;5.00;;;;;-146.25;100.00;57879.81;5076557;28;45563;-77
2021/12/18 10:53:19;;;;;;;;;7.67;7.67;;;;;-146.25;100.00;57879.81;5076334;28;46290;-77
2021/12/18 10:55:57;;;;;;;;;7.00;6.67;;;;;-146.25;100.00;57879.81;5075812;28;45963;-77
2021/12/18 10:58:37;;;;;;;;;8.33;7.67;;;;;-146.25;100.00;57879.81;5076210;27;45317;-77
2021/12/18 11:01:09;;;;;;;;;10.33;9.00;;;;;-146.25;100.00;57879.81;5076803;28;45464;-77
2021/12/18 11:03:46;;;;;;;;;7.00;7.00;;;;;-146.25;100.00;57879.81;5091547;27;46870;-77
2021/12/18 11:06:17;;;;;;;;;12.33;12.00;;;;;-146.25;100.00;57879.81;5077270;28;45338;-75
2021/12/18 11:09:01;;;;;;;;;10.00;9.67;;;;;-146.25;100.00;57879.81;5076523;28;45686;-76
2021/12/18 11:14:00;;;;;;;;;3.33;3.33;;;;;-146.25;100.00;57879.81;5076487;27;45800;-77
2021/12/18 11:16:27;;;;;;;;;7.00;6.33;;;;;-146.25;100.00;57879.81;5077903;28;45535;-77
2021/12/18 11:18:55;;;;;;;;;5.67;3.67;;;;;-146.25;100.00;57879.81;5079029;27;45370;-75
2021/12/18 11:21:24;;;;;;;;;5.67;5.67;;;;;-146.25;100.00;57879.81;5079406;27;45505;-77
2021/12/18 11:24:16;;;;;;;;;14.00;13.00;;;;;-146.25;100.00;57879.81;5077849;28;45546;-77
2021/12/18 11:26:59;;;;;;;;;7.00;6.67;;;;;-146.25;100.00;57879.81;5074486;28;45256;-75
2021/12/18 11:29:46;;;;;;;;;6.33;6.33;;;;;-146.25;100.00;57879.81;5075846;28;45441;-76
2021/12/18 11:32:18;;;;;;;;;11.33;11.33;;;;;-146.25;100.00;57879.81;5044800;27;45718;-83
2021/12/18 11:34:46;;;;;;;;;7.33;6.33;;;;;-146.25;100.00;57879.81;5075340;28;46743;-80
2021/12/18 11:37:15;;;;;;;;;10.00;8.00;;;;;-146.25;100.00;57879.81;5076255;28;45572;-76
2021/12/18 11:39:43;;;;;;;;;5.67;5.00;;;;;-146.25;100.00;57879.81;5076433;27;45477;-75
2021/12/18 11:42:09;;;;;;;;;7.33;6.67;;;;;-146.25;100.00;57879.81;5076453;27;45543;-74
2021/12/18 11:44:40;;;;;;;;;6.00;6.00;;;;;-146.25;100.00;57879.81;5075642;28;46113;-75
2021/12/18 11:47:27;;;;;;;;;6.00;6.00;;;;;-146.25;100.00;57879.81;5076475;27;45430;-76
2021/12/18 11:50:06;;;;;;;;;5.33;5.00;;;;;-146.25;100.00;57879.81;5076814;27;45487;-77
2021/12/18 11:53:09;;;;;;;;;5.33;5.33;;;;;-146.25;100.00;57879.81;5078559;27;45502;-77
2021/12/18 11:55:54;;;;;;;;;6.00;5.33;;;;;-146.25;100.00;57879.81;5077483;28;46240;-77